createdAt,value
2018-11-20T00:01:21.975Z,2.55
2018-11-20T00:04:11.787Z,2.64
2018-11-20T00:07:01.671Z,2.60
2018-11-20T00:09:52.123Z,2.64
2018-11-20T00:12:42.684Z,2.64
2018-11-20T00:15:32.631Z,2.53
2018-11-20T00:18:22.504Z,2.58
2018-11-20T00:21:12.219Z,2.54
2018-11-20T00:24:01.587Z,2.63
2018-11-20T00:26:50.673Z,2.52
2018-11-20T00:29:40.138Z,2.50
2018-11-20T00:32:30.201Z,2.55
2018-11-20T00:35:13.732Z,2.55
2018-11-20T00:38:03.223Z,2.57
2018-11-20T00:40:53.111Z,2.56
2018-11-20T00:43:43.353Z,2.57
2018-11-20T00:46:32.759Z,2.53
2018-11-20T00:52:30.772Z,2.50
2018-11-20T00:55:21.797Z,2.49
2018-11-20T01:01:03.881Z,2.46
2018-11-20T01:03:53.128Z,2.41
2018-11-20T01:06:42.981Z,2.51
2018-11-20T01:09:35.162Z,2.49
2018-11-20T01:12:22.277Z,2.48
2018-11-20T01:15:11.735Z,2.44
2018-11-20T01:18:01.291Z,2.53
2018-11-20T01:20:51.126Z,2.51
2018-11-20T01:23:40.856Z,2.48
2018-11-20T01:26:30.181Z,2.51
2018-11-20T01:29:38.849Z,2.57
2018-11-20T01:32:29.103Z,2.57
2018-11-20T01:35:18.814Z,2.47
2018-11-20T01:38:08.586Z,2.45
2018-11-20T01:40:58.117Z,2.53
2018-11-20T01:43:47.842Z,2.55
2018-11-20T01:46:37.410Z,2.46
2018-11-20T01:49:46.780Z,2.45
2018-11-20T01:52:36.568Z,2.45
2018-11-20T01:55:26.547Z,2.42
2018-11-20T01:58:16.121Z,2.36
2018-11-20T02:01:06.368Z,2.41
2018-11-20T02:03:56.639Z,2.45
2018-11-20T02:06:46.193Z,2.43
2018-11-20T02:09:36.499Z,2.41
2018-11-20T02:13:34.154Z,2.36
2018-11-20T02:15:34.863Z,2.40
2018-11-20T02:18:29.905Z,2.40
2018-11-20T02:21:19.284Z,2.44
2018-11-20T02:24:09.039Z,2.38
2018-11-20T02:26:58.960Z,2.42
2018-11-20T02:29:49.371Z,2.44
2018-11-20T02:32:39.293Z,2.43
2018-11-20T02:35:22.186Z,2.40
2018-11-20T02:38:12.334Z,2.39
2018-11-20T02:41:02.373Z,2.40
2018-11-20T02:43:52.065Z,2.38
2018-11-20T02:46:42.687Z,2.44
2018-11-20T02:49:31.695Z,2.51
2018-11-20T02:52:21.291Z,2.44
2018-11-20T02:55:03.927Z,2.44
2018-11-20T02:57:54.073Z,2.46
2018-11-20T03:00:36.522Z,2.37
2018-11-20T03:03:26.550Z,2.40
2018-11-20T03:06:15.874Z,2.45
2018-11-20T03:09:06.149Z,2.46
2018-11-20T03:12:14.625Z,2.52
2018-11-20T03:15:04.079Z,2.48
2018-11-20T03:17:53.826Z,2.43
2018-11-20T03:21:02.392Z,2.43
2018-11-20T03:23:51.769Z,2.44
2018-11-20T03:26:41.399Z,2.52
2018-11-20T03:30:10.137Z,2.51
2018-11-20T03:32:57.938Z,2.49
2018-11-20T03:35:47.644Z,2.52
2018-11-20T03:38:37.698Z,2.53
2018-11-20T03:41:45.917Z,2.54
2018-11-20T03:44:36.004Z,2.55
2018-11-20T03:47:25.683Z,2.52
2018-11-20T03:50:15.664Z,2.54
2018-11-20T03:53:05.116Z,2.56
2018-11-20T03:55:54.781Z,2.55
2018-11-20T03:58:38.540Z,2.54
2018-11-20T04:01:28.037Z,2.58
2018-11-20T04:04:18.367Z,2.54
2018-11-20T04:07:17.847Z,2.48
2018-11-20T04:10:07.440Z,2.48
2018-11-20T04:13:08.899Z,2.49
2018-11-20T04:15:58.602Z,2.54
2018-11-20T04:21:20.861Z,2.57
2018-11-20T04:24:11.143Z,2.57
2018-11-20T04:27:00.881Z,2.55
2018-11-20T04:29:47.408Z,2.56
2018-11-20T04:32:36.587Z,2.60
2018-11-20T04:35:52.092Z,2.59
2018-11-20T04:38:18.520Z,2.61
2018-11-20T04:41:08.274Z,2.61
2018-11-20T04:43:57.962Z,2.67
2018-11-20T04:46:48.494Z,2.60
2018-11-20T04:49:38.214Z,2.61
2018-11-20T04:52:27.618Z,2.63
2018-11-20T04:55:17.244Z,2.66
2018-11-20T04:58:07.119Z,2.66
2018-11-20T05:00:56.730Z,2.55
2018-11-20T05:03:46.328Z,2.56
2018-11-20T05:06:36.289Z,2.66
2018-11-20T05:09:29.332Z,2.63
2018-11-20T05:12:19.109Z,2.73
2018-11-20T05:15:09.380Z,2.65
2018-11-20T05:18:00.009Z,2.58
2018-11-20T05:20:49.863Z,2.66
2018-11-20T05:23:58.289Z,2.66
2018-11-20T05:26:48.254Z,2.70
2018-11-20T05:29:38.084Z,2.70
2018-11-20T05:32:28.650Z,2.65
2018-11-20T05:35:18.587Z,2.69
2018-11-20T05:37:55.873Z,2.56
2018-11-20T05:40:45.565Z,2.56
2018-11-20T05:43:34.936Z,2.65
2018-11-20T05:46:25.451Z,2.58
2018-11-20T05:49:24.024Z,2.64
2018-11-20T05:52:13.821Z,2.64
2018-11-20T05:57:46.161Z,2.61
2018-11-20T06:00:35.910Z,2.62
2018-11-20T06:03:26.066Z,2.60
2018-11-20T06:06:16.426Z,2.56
2018-11-20T06:09:06.607Z,2.61
2018-11-20T06:12:44.838Z,2.56
2018-11-20T06:14:48.235Z,2.58
2018-11-20T06:17:45.923Z,2.59
2018-11-20T06:20:36.366Z,2.59
2018-11-20T06:23:25.757Z,2.65
2018-11-20T06:29:11.142Z,2.63
2018-11-20T06:32:00.912Z,2.63
2018-11-20T06:34:50.670Z,2.57
2018-11-20T06:37:40.149Z,2.65
2018-11-20T06:40:21.347Z,2.63
2018-11-20T06:43:15.996Z,2.63
2018-11-20T06:46:00.257Z,2.67
2018-11-20T06:48:50.592Z,2.61
2018-11-20T06:51:39.643Z,2.61
2018-11-20T06:57:19.089Z,2.66
2018-11-20T07:00:10.847Z,2.67
2018-11-20T07:02:55.331Z,2.67
2018-11-20T07:05:44.695Z,2.63
2018-11-20T07:08:34.228Z,2.64
2018-11-20T07:11:23.858Z,2.63
2018-11-20T07:14:32.944Z,2.62
2018-11-20T07:17:26.670Z,2.56
2018-11-20T07:23:27.766Z,2.55
2018-11-20T07:26:32.951Z,2.64
2018-11-20T07:29:22.664Z,2.64
2018-11-20T07:32:12.800Z,2.64
2018-11-20T07:35:02.333Z,2.61
2018-11-20T07:37:52.251Z,2.61
2018-11-20T07:40:42.536Z,2.61
2018-11-20T07:43:32.185Z,2.63
2018-11-20T07:46:22.279Z,2.63
2018-11-20T07:49:12.173Z,2.63
2018-11-20T07:52:02.338Z,2.57
2018-11-20T07:55:00.161Z,2.60
2018-11-20T07:57:41.822Z,2.58
2018-11-20T08:00:32.546Z,2.62
2018-11-20T08:03:21.949Z,2.63
2018-11-20T08:06:12.838Z,2.56
2018-11-20T08:14:41.762Z,2.61
2018-11-20T08:17:31.381Z,2.59
2018-11-20T08:20:20.885Z,2.62
2018-11-20T08:23:10.274Z,2.63
2018-11-20T08:25:59.708Z,2.58
2018-11-20T08:28:49.488Z,2.58
2018-11-20T08:31:34.218Z,2.57
2018-11-20T08:34:24.176Z,2.53
2018-11-20T08:37:14.373Z,2.52
2018-11-20T08:40:03.924Z,2.54
2018-11-20T08:42:54.146Z,2.56
2018-11-20T08:45:44.121Z,2.53
2018-11-20T08:48:34.210Z,2.51
2018-11-20T08:51:23.757Z,2.55
2018-11-20T08:54:13.314Z,2.50
2018-11-20T08:57:03.578Z,2.49
2018-11-20T08:59:53.009Z,2.57
2018-11-20T09:02:43.081Z,2.56
2018-11-20T09:05:33.164Z,2.59
2018-11-20T09:08:23.294Z,2.60
2018-11-20T09:11:12.841Z,2.60
2018-11-20T09:14:03.410Z,2.63
2018-11-20T09:16:53.229Z,2.59
2018-11-20T09:19:43.170Z,2.69
2018-11-20T09:22:32.673Z,2.64
2018-11-20T09:25:22.233Z,2.64
2018-11-20T09:28:30.623Z,2.72
2018-11-20T09:31:20.241Z,2.72
2018-11-20T09:34:28.457Z,2.73
2018-11-20T09:37:17.951Z,2.75
2018-11-20T09:40:44.627Z,2.75
2018-11-20T09:43:34.283Z,2.83
2018-11-20T09:46:25.907Z,2.85
2018-11-20T09:49:15.031Z,2.84
2018-11-20T09:52:05.272Z,2.83
2018-11-20T09:54:54.772Z,2.86
2018-11-20T09:57:43.773Z,2.85
2018-11-20T10:00:33.216Z,2.88
2018-11-20T10:03:32.286Z,2.89
2018-11-20T10:06:21.927Z,2.89
2018-11-20T10:09:11.754Z,2.95
2018-11-20T10:12:00.884Z,2.99
2018-11-20T10:14:50.640Z,3.00
2018-11-20T10:17:32.824Z,3.03
2018-11-20T10:20:22.316Z,3.01
2018-11-20T10:23:12.818Z,3.07
2018-11-20T10:26:02.408Z,3.07
2018-11-20T10:28:52.209Z,3.06
2018-11-20T10:31:41.392Z,3.11
2018-11-20T10:34:31.291Z,3.16
2018-11-20T10:37:20.793Z,3.11
2018-11-20T10:42:53.170Z,3.10
2018-11-20T10:45:43.710Z,3.11
2018-11-20T10:48:32.801Z,3.07
2018-11-20T10:51:22.227Z,3.15
2018-11-20T10:54:12.160Z,3.17
2018-11-20T10:57:01.728Z,3.21
2018-11-20T10:59:51.425Z,3.21
2018-11-20T11:02:42.212Z,3.18
2018-11-20T11:05:55.818Z,3.22
2018-11-20T11:08:44.704Z,3.28
2018-11-20T11:11:34.493Z,3.23
2018-11-20T11:14:24.057Z,3.28
2018-11-20T11:17:13.881Z,3.24
2018-11-20T11:20:03.411Z,3.28
2018-11-20T11:22:54.254Z,3.28
2018-11-20T11:25:43.761Z,3.26
2018-11-20T11:28:33.200Z,3.34
2018-11-20T11:31:41.621Z,3.41
2018-11-20T11:34:31.507Z,3.41
2018-11-20T11:37:40.498Z,3.39
2018-11-20T11:40:29.595Z,3.39
2018-11-20T11:43:19.388Z,3.37
2018-11-20T11:46:09.019Z,3.35
2018-11-20T11:48:59.261Z,3.42
2018-11-20T11:51:49.182Z,3.44
2018-11-20T11:54:25.614Z,3.44
2018-11-20T11:57:15.142Z,3.43
2018-11-20T12:00:04.418Z,3.48
2018-11-20T12:05:42.982Z,3.48
2018-11-20T12:08:32.623Z,3.54
2018-11-20T12:11:23.133Z,3.55
2018-11-20T12:14:12.958Z,3.58
2018-11-20T12:17:03.646Z,3.52
2018-11-20T12:19:53.723Z,3.46
2018-11-20T12:23:02.994Z,3.43
2018-11-20T12:26:09.625Z,3.45
2018-11-20T12:28:53.029Z,3.45
2018-11-20T12:31:31.205Z,3.44
2018-11-20T12:34:21.381Z,3.49
2018-11-20T12:37:15.365Z,3.45
2018-11-20T12:40:04.321Z,3.47
2018-11-20T12:42:46.524Z,3.47
2018-11-20T12:46:13.487Z,3.51
2018-11-20T12:49:03.152Z,3.51
2018-11-20T12:51:52.486Z,3.47
2018-11-20T12:54:42.252Z,3.42
2018-11-20T12:57:34.030Z,3.46
2018-11-20T13:03:13.159Z,3.44
2018-11-20T13:06:03.867Z,3.42
2018-11-20T13:09:26.208Z,3.51
2018-11-20T13:11:44.526Z,3.52
2018-11-20T13:14:34.496Z,3.58
2018-11-20T13:17:25.301Z,3.56
2018-11-20T13:20:18.968Z,3.48
2018-11-20T13:23:10.573Z,3.47
2018-11-20T13:26:01.297Z,3.47
2018-11-20T13:28:49.866Z,3.46
2018-11-20T13:34:29.555Z,3.51
2018-11-20T13:37:18.989Z,3.48
2018-11-20T13:40:08.405Z,3.42
2018-11-20T13:43:02.208Z,3.41
2018-11-20T13:45:55.188Z,3.34
2018-11-20T13:48:42.822Z,3.41
2018-11-20T13:51:32.591Z,3.25
2018-11-20T13:54:21.598Z,3.24
2018-11-20T13:57:11.130Z,3.22
2018-11-20T14:00:01.667Z,3.21
2018-11-20T14:05:43.208Z,3.25
2018-11-20T14:08:26.193Z,3.26
2018-11-20T14:11:18.028Z,3.20
2018-11-20T14:14:07.937Z,3.24
2018-11-20T14:19:51.241Z,3.18
2018-11-20T14:22:41.323Z,3.26
2018-11-20T14:25:39.985Z,3.20
2018-11-20T14:28:28.828Z,3.20
2018-11-20T14:31:19.195Z,3.23
2018-11-20T14:34:08.863Z,3.23
2018-11-20T14:37:16.717Z,3.21
2018-11-20T14:40:05.835Z,3.21
2018-11-20T14:43:17.919Z,3.15
2018-11-20T14:45:57.027Z,3.09
2018-11-20T14:48:44.134Z,3.20
2018-11-20T14:51:33.325Z,3.18
2018-11-20T14:54:18.913Z,3.14
2018-11-20T14:57:08.585Z,3.16
2018-11-20T15:03:06.591Z,3.14
2018-11-20T15:05:55.728Z,3.15
2018-11-20T15:08:39.624Z,3.10
2018-11-20T15:11:29.135Z,3.10
2018-11-20T15:14:18.999Z,3.06
2018-11-20T15:17:09.121Z,3.00
2018-11-20T15:19:59.301Z,3.03
2018-11-20T15:22:49.904Z,3.01
2018-11-20T15:25:31.366Z,3.01
2018-11-20T15:28:21.466Z,2.99
2018-11-20T15:31:11.522Z,2.99
2018-11-20T15:34:01.566Z,2.90
2018-11-20T15:36:44.582Z,2.90
2018-11-20T15:39:34.577Z,2.94
2018-11-20T15:42:24.281Z,2.86
2018-11-20T15:45:14.557Z,2.83
2018-11-20T15:48:14.969Z,2.80
2018-11-20T15:51:05.903Z,2.88
2018-11-20T15:53:54.620Z,2.88
2018-11-20T15:56:44.191Z,2.85
2018-11-20T15:59:33.933Z,2.90
2018-11-20T16:05:13.602Z,2.85
2018-11-20T16:08:03.598Z,2.82
2018-11-20T16:10:53.216Z,2.79
2018-11-20T16:13:37.644Z,2.86
2018-11-20T16:16:28.239Z,2.86
2018-11-20T16:19:31.401Z,2.82
2018-11-20T16:22:21.740Z,2.81
2018-11-20T16:25:11.844Z,2.82
2018-11-20T16:28:01.559Z,2.76
2018-11-20T16:30:53.192Z,2.75
2018-11-20T16:36:30.539Z,2.79
2018-11-20T16:39:20.345Z,2.79
2018-11-20T16:42:10.303Z,2.89
2018-11-20T16:47:54.725Z,2.82
2018-11-20T16:50:44.601Z,2.80
2018-11-20T16:53:33.831Z,2.73
2018-11-20T16:56:22.864Z,2.77
2018-11-20T16:59:12.897Z,2.82
2018-11-20T17:02:02.612Z,2.79
2018-11-20T17:04:51.829Z,2.78
2018-11-20T17:07:40.869Z,2.77
2018-11-20T17:10:54.687Z,2.80
2018-11-20T17:13:10.454Z,2.82
2018-11-20T17:16:00.415Z,2.83
2018-11-20T17:18:50.255Z,2.85
2018-11-20T17:21:39.784Z,2.77
2018-11-20T17:24:29.039Z,2.71
2018-11-20T17:27:19.177Z,2.75
2018-11-20T17:30:05.175Z,2.77
2018-11-20T17:32:54.341Z,2.79
2018-11-20T17:38:35.312Z,2.72
2018-11-20T17:41:24.892Z,2.66
2018-11-20T17:44:14.419Z,2.65
2018-11-20T17:47:03.396Z,2.59
2018-11-20T17:49:53.141Z,2.66
2018-11-20T17:52:42.913Z,2.53
2018-11-20T17:55:32.319Z,2.57
2018-11-20T17:58:22.212Z,2.62
2018-11-20T18:01:18.343Z,2.59
2018-11-20T18:04:08.430Z,2.45
2018-11-20T18:07:00.100Z,2.47
2018-11-20T18:09:48.188Z,2.43
2018-11-20T18:12:40.010Z,2.35
2018-11-20T18:15:48.471Z,2.28
2018-11-20T18:18:38.058Z,2.28
2018-11-20T18:21:27.873Z,2.30
2018-11-20T18:24:23.453Z,2.20
2018-11-20T18:27:00.505Z,2.17
2018-11-20T18:29:39.781Z,2.23
2018-11-20T18:32:28.798Z,2.23
2018-11-20T18:35:18.011Z,2.17
2018-11-20T18:38:07.419Z,2.15
2018-11-20T18:40:56.953Z,2.17
2018-11-20T18:43:47.515Z,2.17
2018-11-20T18:46:33.455Z,2.26
2018-11-20T18:49:23.080Z,2.24
2018-11-20T18:55:03.807Z,2.25
2018-11-20T18:57:55.789Z,2.30
2018-11-20T19:00:44.944Z,2.30
2018-11-20T19:03:34.419Z,2.36
2018-11-20T19:06:23.613Z,2.33
2018-11-20T19:09:13.594Z,2.36
2018-11-20T19:12:04.030Z,2.44
2018-11-20T19:14:54.269Z,2.45
2018-11-20T19:17:43.760Z,2.48
2018-11-20T19:20:33.373Z,2.49
2018-11-20T19:23:23.213Z,2.52
2018-11-20T19:26:09.577Z,2.54
2018-11-20T19:28:58.552Z,2.52
2018-11-20T19:32:36.704Z,2.53
2018-11-20T19:34:38.331Z,2.53
2018-11-20T19:37:28.113Z,2.56
2018-11-20T19:40:23.844Z,2.58
2018-11-20T19:43:08.555Z,2.60
2018-11-20T19:45:56.469Z,2.66
2018-11-20T19:48:46.761Z,2.64
2018-11-20T19:51:35.915Z,2.60
2018-11-20T19:54:26.408Z,2.54
2018-11-20T19:57:15.840Z,2.48
2018-11-20T20:00:05.517Z,2.47
2018-11-20T20:02:55.624Z,2.48
2018-11-20T20:06:33.590Z,2.49
2018-11-20T20:08:35.243Z,2.47
2018-11-20T20:11:25.689Z,2.40
2018-11-20T20:14:15.192Z,2.39
2018-11-20T20:17:04.731Z,2.43
2018-11-20T20:19:54.171Z,2.42
2018-11-20T20:22:45.071Z,2.50
2018-11-20T20:25:35.313Z,2.44
2018-11-20T20:28:25.575Z,2.44
2018-11-20T20:31:14.893Z,2.40
2018-11-20T20:34:06.366Z,2.38
2018-11-20T20:37:14.979Z,2.38
2018-11-20T20:40:05.335Z,2.36
2018-11-20T20:43:43.316Z,2.39
2018-11-20T20:48:35.994Z,2.38
2018-11-20T20:51:25.981Z,2.35
2018-11-20T20:54:18.792Z,2.34
2018-11-20T20:57:05.427Z,2.36
2018-11-20T20:59:55.817Z,2.28
2018-11-20T21:02:45.117Z,2.22
2018-11-20T21:11:26.505Z,2.30
2018-11-20T21:14:17.439Z,2.34
2018-11-20T21:17:07.166Z,2.36
2018-11-20T21:19:57.098Z,2.37
2018-11-20T21:22:58.023Z,2.36
2018-11-20T21:25:47.988Z,2.36
2018-11-20T21:28:37.847Z,2.38
2018-11-20T21:31:45.737Z,2.44
2018-11-20T21:34:35.313Z,2.44
2018-11-20T21:37:24.962Z,2.24
2018-11-20T21:40:14.436Z,2.44
2018-11-20T21:43:06.064Z,2.38
2018-11-20T21:45:48.018Z,2.37
2018-11-20T21:48:37.596Z,2.41
2018-11-20T21:51:27.196Z,2.35
2018-11-20T21:54:17.365Z,2.35
2018-11-20T21:57:07.325Z,2.34
2018-11-20T22:03:30.578Z,2.33
2018-11-20T22:09:08.652Z,2.22
2018-11-20T22:11:58.270Z,2.19
2018-11-20T22:14:39.012Z,2.19
2018-11-20T22:17:29.339Z,2.23
2018-11-20T22:20:19.096Z,2.23
2018-11-20T22:23:09.179Z,2.25
2018-11-20T22:25:58.550Z,2.20
2018-11-20T22:28:48.162Z,2.08
2018-11-20T22:31:37.991Z,2.07
2018-11-20T22:34:48.078Z,2.00
2018-11-20T22:37:37.886Z,2.00
2018-11-20T22:40:27.610Z,2.09
2018-11-20T22:43:12.074Z,2.03
2018-11-20T22:46:02.066Z,1.99
2018-11-20T22:48:51.899Z,2.06
2018-11-20T22:51:41.863Z,1.99
2018-11-20T22:54:31.353Z,2.02
2018-11-20T22:57:21.051Z,1.95
2018-11-20T23:00:11.218Z,1.93
2018-11-20T23:03:20.377Z,1.85
2018-11-20T23:06:07.271Z,1.85
2018-11-20T23:08:38.702Z,1.90
2018-11-20T23:11:10.745Z,1.86
2018-11-20T23:13:41.836Z,1.88
2018-11-20T23:16:12.981Z,1.96
2018-11-20T23:18:44.416Z,1.90
2018-11-20T23:21:16.194Z,1.87
2018-11-20T23:23:47.384Z,1.91
2018-11-20T23:26:18.456Z,1.81
2018-11-20T23:28:49.593Z,1.83
2018-11-20T23:31:21.165Z,1.82
2018-11-20T23:34:12.674Z,1.87
2018-11-20T23:36:44.852Z,1.87
2018-11-20T23:39:16.598Z,1.87
2018-11-20T23:41:47.706Z,1.86
2018-11-20T23:44:18.794Z,1.81
2018-11-20T23:46:50.242Z,1.81
2018-11-20T23:49:22.786Z,1.76
2018-11-20T23:51:54.308Z,1.81
2018-11-20T23:54:26.227Z,1.77
2018-11-20T23:56:57.529Z,1.77
2018-11-20T23:59:28.841Z,1.76
